Gunness, United Kingdom
Current Conditions -  °F | °C
As of 6:50 PM on Wednesday 26 Nov 2014 (Local Time) from EGCN Reporting Station
Haze Haze  
Wind Chill: 44°   Ceiling: 700
Heat Index: 46°   Visibility: 2.1mi
Dew Point: 45°   Wind: 6mph
Humidity: 93%   Direction: 350°N
Pressure: 29.83"   Gusts: NA
Location:  53.59°N, 0.73°W
Report Text: EGCN 261850Z 35005KT 3500 BR BKN007 OVC011 08/07 Q1010
Loading
Personal Weather Stations






























Interactive Weather Map New forecast layout! Learn more

10-Day Weather Forecast

Advertisements
Track Severe Weather on mobile